空港情報

日本の空港の気象及び、管制情報です。
気象情報はより詳細な情報が取得できる「AVIATION WEATER CENTER」 から取得しているため、VATSIMの気象情報と若干のタイムラグが生じることがあります。

VRCのフィールド設定用空港一覧はこちらをご覧ください。

RJCG Sapporo Control

RJCW / Wakkanai
VMC

NO RADAR

RADIO

08/26 2200x45

民間 civil

9999

200@12KT

29.70

RJCW 240900Z 20012KT 9999 FEW020 15/10 Q1006

RJER / Rishiri

NO RADAR

REMOTE

25/07 1800x45

民間 civil

過去5時間に発表されたMETARがありません。

RJEB / Monbetsu

NO RADAR

REMOTE

32/14 2000x45

民間 civil

過去5時間に発表されたMETARがありません。

RJCM / Memanbetsu
VMC

NO RADAR

TOWER

36/18 2500x45

民間 civil

9999

000@2KT

29.76

RJCM 241100Z VRB02KT 9999 FEW050 BKN070 15/07 Q1008

RJEC / Asahikawa
VMC

NO RADAR

TOWER

34/16 2500x60

民間 civil

9999

320@4KT

29.79

RJEC 241100Z 32004KT 9999 FEW025 12/07 Q1009

RJCN / Nakashibetsu
VMC

NO RADAR

RADIO

08/26 2000x45

民間 civil

9999

020@4KT

29.73

RJCN 240900Z 02004KT 340V050 9999 FEW025 BKN060 14/08 Q1007

RJCK / Kushiro
VMC

NO RADAR

TOWER

17/35 2500x45

民間 civil

9999

250@6KT

29.76

RJCK 241100Z 25006KT 9999 FEW030 SCT080 12/08 Q1008

RJCO / Sapporo
VMC

RJCO_APP

TOWER

14/32 1500x30

共用 dual

9999

310@5KT

29.82

RJCO 241100Z 31005KT 9999 FEW040 13/07 Q1010

RJCJ / Chitose

RJCC_APP

TOWER

36R/18L 3000x60
36L/18R 2700x45

自衛隊 military

過去5時間に発表されたMETARがありません。

RJCC / NewChitose
VMC

RJCC_APP

TOWER

01L/19R 3000x60
01R/19L 3000x60

民間 civil

9999

340@7KT

29.82

RJCC 241200Z 34007KT 9999 FEW040 14/05 Q1010 RMK 1CU040 A2983

RJCB / Obihiro
VMC

NO RADAR

TOWER

35/17 2500x45

民間 civil

9999

180@7KT

29.76

RJCB 241100Z 18007KT 9999 FEW050 13/07 Q1008

RJEO / Okushiri

NO RADAR

REMOTE

12/30 1500x45

民間 civil

過去5時間に発表されたMETARがありません。

RJCH / Hakodate
VMC

RJCH_APP

TOWER

12/30 3000x45

民間 civil

9999

270@5KT

29.82

RJCH 241100Z 27005KT 190V320 9999 FEW030 13/12 Q1010

RJSA / Aomori
VMC

NO RADAR

TOWER

24/06 3000x60

民間 civil

9999

000@1KT

29.88

RJSA 241200Z VRB01KT 9999 FEW010 SCT100 BKN/// 10/09 Q1012

RJSO / Ominato

RJSM_APP

TOWER

04/22 600x45

自衛隊 military

過去5時間に発表されたMETARがありません。

RJSM / Misawa
VMC

RJSM_APP

TOWER

10/28 3050x45

共用 dual

9999

340@4KT

29.85

RJSM 241200Z 34004KT 9999 FEW030 14/12 Q1011

RJSH / Hachinohe

RJSM_APP

TOWER

25/07 2250x45

自衛隊 military

過去5時間に発表されたMETARがありません。

RJSK / Akita
VMC

NO RADAR

TOWER

10/28 2500x60

民間 civil

9999

110@2KT

29.91

RJSK 241200Z 11002KT 9999 FEW008 BKN012 BKN015 15/13 Q1013

RJSI / Hanamaki
VMC

NO RADAR

RADIO

20/02 2500x45

民間 civil

9999

230@3KT

29.82

RJSI 241000Z 23003KT 200V290 9999 FEW040 SCT150 BKN/// 19/09 Q1010

RJSR / Odate-Noshiro
VMC

NO RADAR

REMOTE

11/29 2000x45

民間 civil

9999

270@4KT

29.88

RJSR 241000Z 27004KT 9999 FEW010 BKN020 15/15 Q1012

RJTG Tokyo Control

RJSY / Shonai
VMC

NO RADAR

RADIO

09/27 2000x45

民間 civil

9999

260@6KT

29.91

RJSY 241200Z 26006KT 9999 FEW008 BKN012 17/15 Q1013

RJSC / Yamagata
VMC

NO RADAR

RADIO

01/19 2000x45

民間 civil

9999

360@11KT

29.85

RJSC 241000Z 36011KT 9999 FEW050 SCT180 18/14 Q1011

RJST / Matsushima

RJSS_APP

TOWER

07/25 2071x46
15/33 1500x46

自衛隊 military

過去5時間に発表されたMETARがありません。

RJSS / Sendai
VMC

RJSS_APP

TOWER

27/09 3000x45
12/30 1200x45

民間 civil

9999

130@3KT

29.85

RJSS 241200Z 13003KT 9999 FEW025 BKN/// 18/14 Q1011

RJSD / Sado
VMC

NO RADAR

REMOTE

10/28 890x25

民間 civil

9999

000@2KT

29.91

RJSD 241200Z AUTO VRB02KT 9999 NCD 15/13 Q1013

RJSN / Niigata
VMC

RJSN_APP

TOWER

10/28 2500x45
04/22 1314x45

民間 civil

9999

100@3KT

29.91

RJSN 241200Z 10003KT CAVOK 17/17 Q1013

RJSF / Fukushima
VMC

NO RADAR

RADIO

01/19 2500x60

民間 civil

9999

350@8KT

29.91

RJSF 241100Z 35008KT 9999 FEW030 20/04 Q1013

RJAH / Ibaraki/Hyakuri
VMC

RJAH_APP

TOWER

03L/21R 2700x45
03R/21L 2700x45

共用 dual

9999

160@3KT

29.88

RJAH 241200Z 16003KT 9999 FEW030 20/12 Q1012

RJTT / Tokyo
VMC

RJTT_APP

TOWER

34LR/16RL 3000x60
04/22&05/23 2500x60

民間 civil

9999

190@11KT

29.88

RJTT 241200Z 19011KT CAVOK 22/18 Q1012 NOSIG RMK A2990

RJAA / Narita
VMC

RJTT_APP

TOWER

34L/16R 4000x60
34R/16L 2500x60

民間 civil

9999

120@4KT

29.88

RJAA 241200Z 12004KT CAVOK 18/16 Q1012 NOSIG RMK A2990

RJTL / Shimofusa

RJTT_APP

TOWER

19/01 2250x45

自衛隊 military

過去5時間に発表されたMETARがありません。

RJTE / Tateyama

RJTT_APP

TOWER

09/27 300x45

自衛隊 military

過去5時間に発表されたMETARがありません。

RJTO / Oshima
VMC

NO RADAR

RADIO

03/21 1800x45

民間 civil

9999

200@11KT

29.82

RJTO 240800Z 20011KT 9999 FEW030 23/16 Q1010

RJTK / Kisarazu

NO RADAR

TOWER

02/20 1830x45

自衛隊 military

過去5時間に発表されたMETARがありません。

RJAN / Niijima

NO RADAR

REMOTE

11/29 800x25

自衛隊 military

過去5時間に発表されたMETARがありません。

RJAZ / Kozushima

NO RADAR

REMOTE

11/29 800x25

民間 civil

過去5時間に発表されたMETARがありません。

RJTH / Hachijojima

NO RADAR

RADIO

26/08 2000x45

民間 civil

過去5時間に発表されたMETARがありません。

RJTF / Chofu
VMC

NO RADAR

Flight Service

35/17 800x30

民間 civil

9999

190@5KT

29.79

RJTF 240800Z 19005KT 150V310 9999 FEW030 27/10 Q1009

RJTQ / Miyake

NO RADAR

REMOTE

02/20 1200x30

民間 civil

過去5時間に発表されたMETARがありません。

RJTC / Tachikawa

NO RADAR

TOWER

01/19 900x45

自衛隊 military

過去5時間に発表されたMETARがありません。

RJTA / Atsugi

NO RADAR

TOWER

01/19 2438x45

自衛隊 military

過去5時間に発表されたMETARがありません。

RJTU / Utsunomiya

RJTY_APP

TOWER

01/19 1700x45

自衛隊 military

過去5時間に発表されたMETARがありません。

RJTJ / Iruma

RJTY_APP

TOWER

17/35 2000x45

自衛隊 military

過去5時間に発表されたMETARがありません。

RJTY / Yokota
VMC

RJTY_APP

TOWER

18/36 3353x60

自衛隊 military

9999

290@6KT

29.94

RJTY 241156Z AUTO 29006KT 10SM CLR 22/11 A2994 RMK AO2 SLP137 T02150106 10283 20215 52017 FZRANO $

RJAF / Matsumoto

NO RADAR

RADIO

18/36 2000x45

民間 civil

過去5時間に発表されたMETARがありません。

RJNS / Shizuoka
VMC

NO RADAR

RADIO

30/12 2500x60

民間 civil

9999

360@3KT

29.91

RJNS 241200Z 36003KT 330V040 9999 FEW030 20/16 Q1013

RJNY / Yaizu-Shizuhama

NO RADAR

TOWER

27/09 1500x45

自衛隊 military

過去5時間に発表されたMETARがありません。

RJNH / Hamamatsu

RJNH_APP

TOWER

09/27 2550x60

自衛隊 military

過去5時間に発表されたMETARがありません。

RJGG / Chubu
VMC

RJGG_APP

TOWER

36/18 3500x60

民間 civil

9999

280@10KT

29.88

RJGG 241200Z 28010KT 9999 FEW030 23/16 Q1012 NOSIG

RJNA / Nagoya

RJGG_APP

TOWER

34/16 2740x45

民間 civil

過去5時間に発表されたMETARがありません。

RJNG / Gifu

RJGG_APP

TOWER

28/10 2710x46

自衛隊 military

過去5時間に発表されたMETARがありません。

RJOE / Akeno

RJOE_APP

TOWER

13/31 500x30
04/22 500x30

自衛隊 military

過去5時間に発表されたMETARがありません。

RJNK / Komatsu
VMC

RJNK_APP

TOWER

06/24 2700x45

共用 dual

9999

220@3KT

29.94

RJNK 241200Z 22003KT 9999 FEW/// 19/13 Q1014

RJNW / Noto
VMC

NO RADAR

RADIO

25/07 2000x45

民間 civil

9999

240@5KT

29.91

RJNW 241000Z 24005KT CAVOK 18/11 Q1013

RJNT / Toyama
VMC

NO RADAR

TOWER

20/02 2000x45

民間 civil

9999

250@3KT

29.91

RJNT 241200Z 25003KT 9999 FEW100 20/14 Q1013

RJNF / Fukui

NO RADAR

REMOTE

18/36 1200x30

民間 civil

過去5時間に発表されたMETARがありません。

RJBD / Nanki-Shirahama
VMC

NO RADAR

RADIO

15/33 2000x45

民間 civil

9999

000@2KT

29.91

RJBD 241000Z VRB02KT CAVOK 22/15 Q1013

RJOY / Yao
VMC

RJBB_APP

TOWER

27/09 1490x45
13/31 1200x30

民間 civil

9999

000@2KT

29.88

RJOY 241000Z VRB02KT CAVOK 28/04 Q1012

RJOO / Osaka
VMC

RJBB_APP

TOWER

32L/14R 3000x60
32R/14L 1830x45

民間 civil

9999

000@1KT

29.88

RJOO 241100Z VRB01KT CAVOK 26/08 Q1012 RMK A2990

RJOB / Okayama
VMC

RJBB_APP

TOWER

07/25 3000x45

民間 civil

9999

000@0KT

29.91

RJOB 241200Z 00000KT CAVOK 22/12 Q1013

RJBB / Kansai
VMC

RJBB_APP

TOWER

06R/24L 3500x60
06L/24R 4000x60

民間 civil

9999

220@8KT

29.91

RJBB 241200Z 22008KT CAVOK 21/16 Q1013 NOSIG

RJBE / Kobe
VMC

RJBB_APP

TOWER

09/27 2500x60

民間 civil

9999

260@3KT

29.91

RJBE 241200Z 26003KT CAVOK 19/14 Q1013

RJBT / Tajima
VMC

NO RADAR

REMOTE

01/19 1200x30

民間 civil

9999

060@3KT

29.88

RJBT 240900Z 06003KT 010V100 CAVOK 23/12 Q1012

RJOR / Tottori
VMC

NO RADAR

RADIO

10/28 2000x45

民間 civil

9999

180@2KT

29.91

RJOR 241200Z 18002KT 9999 FEW035 19/17 Q1013

RJNO / Oki

NO RADAR

REMOTE

07/25 2000x45

民間 civil

過去5時間に発表されたMETARがありません。

RJOH / Miho
VMC

RJOH_APP

TOWER

25/07 2500x45

共用 dual

9999

260@8KT

29.91

RJOH 241200Z 26008KT 9999 FEW/// 21/12 Q1013

RJOC / Izumo
VMC

RJOH_APP

RADIO

07/25 2000x45

共用 dual

9999

220@5KT

29.88

RJOC 241100Z 22005KT 180V250 CAVOK 21/14 Q1012

RJDG Fukuoka Control

RJOT / Takamatsu
VMC

RJBB_APP

TOWER

26/08 2500x60

民間 civil

9999

150@8KT

29.94

RJOT 241200Z 15008KT CAVOK 20/09 Q1014

RJOK / Kochi
VMC

RJBB_APP

TOWER

32/14 2500x45

民間 civil

9999

040@3KT

29.91

RJOK 241100Z 04003KT CAVOK 22/12 Q1013

RJOS / Tokushima
VMC

RJOS_APP

TOWER

29/11 2500x45

共用 dual

9999

190@4KT

29.91

RJOS 241200Z 19004KT 150V260 9999 FEW030 22/17 Q1013

RJOA / Hiroshima
VMC

RJOA_APP

TOWER

10/28 3000x60

民間 civil

9999

240@3KT

29.97

RJOA 241200Z 24003KT CAVOK 22/09 Q1015

RJBH / Hiroshimanishi

NO RADAR

Flight Service

04/22 1800x45

民間 civil

過去5時間に発表されたMETARがありません。

RJOI / Iwakuni
VMC

RJOI_APP

TOWER

02/20 2440x60

共用 dual

9999

000@0KT

29.93

RJOI 241155Z 00000KT 9999 SKC 20/16 A2993 RMK SLP134 T02000156 10244 20200 51014

RJOM / Matsuyama
VMC

RJOI_APP

TOWER

14/32 2500x45

民間 civil

9999

130@5KT

29.94

RJOM 241200Z 13005KT CAVOK 25/11 Q1014

RJOZ / Ozuki

RJFZ_APP

TOWER

35/17 1201x61
12/30 899x46

自衛隊 military

過去5時間に発表されたMETARがありません。

RJOF / Hofu

RJFZ_APP

TOWER

30/12 1180x60
01/19 1480x45

自衛隊 military

過去5時間に発表されたMETARがありません。

RJDC / Yamaguchi-Ube
VMC

RJFZ_APP

RADIO

07/25 2500x45

民間 civil

9999

120@5KT

29.91

RJDC 241200Z 12005KT 360V150 CAVOK 23/13 Q1013

RJFR / Kitakyushu
VMC

RJFZ_APP

TOWER

18/36 2500x60

民間 civil

9999

000@1KT

29.91

RJFR 241200Z VRB01KT CAVOK 26/08 Q1013

RJFZ / Tsuiki

RJFZ_APP

TOWER

25/07 2399x46

自衛隊 military

過去5時間に発表されたMETARがありません。

RJOW / Iwami
VMC

NO RADAR

REMOTE

11/29 2000x45

民間 civil

9999

130@4KT

29.88

RJOW 241000Z 13004KT CAVOK 23/15 Q1012

RJDT / Tsushima
VMC

NO RADAR

REMOTE

32/14 1900x45

民間 civil

9999

230@8KT

29.88

RJDT 241100Z 23008KT 190V260 CAVOK 23/11 Q1012

RJFF / Fukuoka
VMC

RJFF_APP

TOWER

16/34 2800x60

民間 civil

9999

000@4KT

29.91

RJFF 241200Z VRB04KT CAVOK 24/13 Q1013 BECMG 15008KT

RJFS / Saga
VMC

RJFF_APP

RADIO

29/11 2000x45

民間 civil

9999

210@9KT

29.97

RJFS 241200Z 21009KT CAVOK 22/19 Q1015

RJFA / Ashiya

RJFF_APP

TOWER

12/30 1640x46

自衛隊 military

過去5時間に発表されたMETARがありません。

RJDB / Iki

RJFF_APP

REMOTE

20/02 1200x30

民間 civil

過去5時間に発表されたMETARがありません。

RJFO / Oita
VMC

RJFO_APP

TOWER

01/19 3000x45

民間 civil

9999

000@2KT

29.94

RJFO 241200Z VRB02KT CAVOK 20/14 Q1014

RJFU / Nagasaki
VMC

RJFU_APP

TOWER

32/14 3000x60

民間 civil

9999

150@4KT

29.97

RJFU 241200Z 15004KT CAVOK 21/19 Q1015

RJDU / Omura

RJFU_APP

TOWER

18/36 1200x30

自衛隊 military

過去5時間に発表されたMETARがありません。

RJFE / Fukue
VMC

NO RADAR

RADIO

03/21 2000x45

民間 civil

9999

150@5KT

29.94

RJFE 241000Z 15005KT CAVOK 20/18 Q1014

RJDO / Ojika

NO RADAR

REMOTE

03/21 800x30

民間 civil

過去5時間に発表されたMETARがありません。

RJDK / Kamigoto
VMC

NO RADAR

REMOTE

17/35 800x30

民間 civil

9999

310@3KT

29.97

RJDK 241200Z AUTO 31003KT 9999 NCD 21/15 Q1015

RJDA / Amakusa

NO RADAR

Flight Service

31/13 1000x30

民間 civil

過去5時間に発表されたMETARがありません。

RJFT / Kumamoto
VMC

RJFT_APP

TOWER

07/25 3000x45

民間 civil

9999

200@7KT

30.00

RJFT 241200Z 20007KT CAVOK 22/16 Q1016

RJFN / Nyutabaru

RJFM_APP

TOWER

28/10 2701x46

自衛隊 military

過去5時間に発表されたMETARがありません。

RJFM / Miyazaki
VMC

RJFM_APP

TOWER

27/09 2500x45

民間 civil

9999

350@4KT

29.94

RJFM 241200Z 35004KT 300V040 9999 FEW030 23/17 Q1014

RJFK / Kagoshima
VMC

RJFK_APP

TOWER

34/16 3000x45

民間 civil

9999

260@4KT

30.00

RJFK 241200Z 26004KT CAVOK 21/11 Q1016 RMK A3001

RJFY / Kanoya
VMC

RJFY_APP

TOWER

26L/08R 2250x45
26R/08L 1200x40

自衛隊 military

9999

300@6KT

29.97

RJFY 241148Z 30006KT 270V340 9999 FEW030 22/15 Q1015 RMK 1CU030 A2998

RJFG / Tanegashima
VMC

NO RADAR

RADIO

31/13 2000x45

民間 civil

9999

290@17KT

29.94

RJFG 240900Z 29017KT CAVOK 22/15 Q1014

RJFC / Yakushima

NO RADAR

REMOTE

14/32 1500x45

民間 civil

過去5時間に発表されたMETARがありません。

RJBG Kobe Control

ROAH / Naha
VMC

ROAH_APP

TOWER

36/18 3000x45

共用 dual

9999

070@7KT

29.97

ROAH 241200Z 07007KT 9999 FEW040 25/14 Q1015 RMK 1CU040 A3000

RORA / Aguni

ROAH_APP

REMOTE

01/19 800x25

民間 civil

過去5時間に発表されたMETARがありません。

ROKJ / Kumejima

ROAH_APP

REMOTE

03/21 2000x45

民間 civil

過去5時間に発表されたMETARがありません。

RODN / Kadena
VMC

ROAH_APP

TOWER

05L/23R 3688x91
05R/23L 3688x61

自衛隊 military

9999

060@5KT

30.01

RODN 241156Z AUTO 06005KT 10SM CLR 18/13 A3001 RMK AO2 SLP168 T01820133 10297 20182 52014 $

ROTM / Futenma

ROAH_APP

TOWER

06/24 2740x45

自衛隊 military

過去5時間に発表されたMETARがありません。

RORS / Shimojishima
VMC

RORS_APP

TOWER

17/35 3000x60

民間 civil

9999

110@9KT

29.94

RORS 241000Z 11009KT 9999 FEW037 25/15 Q1014

ROMY / Miyako
VMC

RORS_APP

TOWER

04/22 2000x45

民間 civil

9999

110@7KT

29.94

ROMY 241100Z 11007KT 9999 FEW035 23/15 Q1014

ROIG / New Ishigaki
VMC

RORS_APP

TOWER

22/04 2000x45

民間 civil

9999

100@11KT

29.91

ROIG 241100Z 10011KT 9999 FEW031 25/18 Q1013

RORT / Tarama

RORS_APP

REMOTE

36/18 1500x45

民間 civil

過去5時間に発表されたMETARがありません。

RJKA / Amami
VMC

NO RADAR

RADIO

03/21 2000x45

民間 civil

9999

340@4KT

29.97

RJKA 241000Z 34004KT 300V010 9999 FEW035 23/17 Q1015

RJKI / Kikai
VMC

NO RADAR

REMOTE

07/25 1200x30

民間 civil

9999

360@6KT

30.00

RJKI 241200Z AUTO 36006KT 9999 NCD 24/18 Q1016

RJKN / Tokunoshima

NO RADAR

REMOTE

19/01 2000x45

民間 civil

過去5時間に発表されたMETARがありません。

RJKB / Okierabu

NO RADAR

REMOTE

04/22 1350x45

民間 civil

過去5時間に発表されたMETARがありません。

RORY / Yoron
VMC

NO RADAR

REMOTE

32/14 1320x30

民間 civil

9999

080@3KT

30.00

RORY 241200Z AUTO 08003KT 9999 NCD 23/17 Q1016

RORK / Kitadaito
VMC

NO RADAR

REMOTE

03/21 1500x45

民間 civil

9999

070@9KT

29.97

RORK 241200Z AUTO 07009KT 9999 NCD 24/19 Q1015

ROMD / Minami-daito
VMC

NO RADAR

REMOTE

02/20 1500x45

民間 civil

9999

050@7KT

29.97

ROMD 241200Z AUTO 05007KT 9999 FEW023 23/18 Q1015

ROYN / Yonaguni
VMC

NO RADAR

REMOTE

26/08 2000x45

民間 civil

9999

120@12KT

29.91

ROYN 241200Z AUTO 12012KT 9999 FEW025 26/21 Q1013

RORH / Hateruma

NO RADAR

REMOTE

02/20 800x25

民間 civil

過去5時間に発表されたMETARがありません。

ROKR / Kerama

NO RADAR

REMOTE

02/20 800x25

民間 civil

過去5時間に発表されたMETARがありません。